Castle Donington, United Kingdom
Current Conditions -  °F | °C
As of 4:20 PM on Friday 19 Dec 2014 (Local Time) from EGNX Reporting Station
Few Clouds Few Clouds  
Wind Chill: 33°   Ceiling: Unl
Heat Index: 43°   Visibility: 6mi
Dew Point: 36°   Wind: 26mph
Humidity: 76%   Direction: 250°WSW
Pressure: 29.94"   Gusts: NA
Location:  52.84°N, 1.34°W
Report Text: EGNX 191620Z 25023KT 9999 FEW030 06/02 Q1014
Loading
Personal Weather Stations






























Interactive Weather Map New forecast layout! Learn more

10-Day Weather Forecast

Advertisements
Track Severe Weather on mobile